Time;durP1;ratioP1;P1;durP2;ratioP2;P2;SDS_P1;SDS_P2;PMS_P1;PMS_P2;Temp;Humidity;BMP_temperature;BMP_pressure;BME280_temperature;BME280_humidity;BME280_pressure;Samples;Min_cycle;Max_cycle;Signal;HPM_P1;HPM_P2
2023/12/22 00:00:39;;;;;;;9.73;2.42;;;;;;;4.83;80.19;96450.41;5027177;28;20493;-72
2023/12/22 00:03:05;;;;;;;9.15;2.60;;;;;;;4.88;80.38;96465.63;5015107;28;20033;-72
2023/12/22 00:05:30;;;;;;;8.40;2.78;;;;;;;4.79;79.78;96451.16;5025693;28;20033;-72
2023/12/22 00:07:55;;;;;;;7.88;3.28;;;;;;;4.89;80.38;96467.25;5021567;28;20029;-72
2023/12/22 00:10:21;;;;;;;7.35;3.05;;;;;;;4.91;79.71;96475.81;5019671;28;20453;-72
2023/12/22 00:12:46;;;;;;;12.25;3.55;;;;;;;4.87;79.90;96464.03;5036524;28;20088;-72
2023/12/22 00:15:12;;;;;;;9.75;3.10;;;;;;;4.92;79.86;96466.78;5049135;28;20017;-72
2023/12/22 00:17:37;;;;;;;8.68;2.70;;;;;;;4.96;79.24;96483.88;5033529;28;20379;-72
2023/12/22 00:20:03;;;;;;;8.98;2.92;;;;;;;4.75;79.46;96466.84;5048402;28;20021;-72
2023/12/22 00:22:30;;;;;;;10.50;3.28;;;;;;;4.85;79.61;96468.81;5048287;28;20044;-72
2023/12/22 00:24:55;;;;;;;8.75;3.30;;;;;;;4.88;79.52;96481.63;5029470;28;20021;-72
2023/12/22 00:27:20;;;;;;;11.65;3.20;;;;;;;4.88;80.06;96477.13;5016246;28;20045;-72
2023/12/22 00:29:46;;;;;;;9.55;3.40;;;;;;;4.73;79.99;96473.50;5008891;28;20025;-72
2023/12/22 00:32:11;;;;;;;12.68;3.17;;;;;;;4.87;79.52;96470.19;5031914;28;20440;-72
2023/12/22 00:34:36;;;;;;;10.90;3.10;;;;;;;4.92;79.19;96488.09;5021114;28;20041;-72
2023/12/22 00:37:04;;;;;;;8.35;2.67;;;;;;;4.87;79.76;96485.38;5023906;28;20042;-73
2023/12/22 00:39:30;;;;;;;7.40;2.67;;;;;;;4.91;79.37;96483.81;5028588;28;20217;-72
2023/12/22 00:41:55;;;;;;;11.65;3.45;;;;;;;4.85;80.06;96487.50;5010154;28;20576;-73
2023/12/22 00:44:20;;;;;;;12.20;3.08;;;;;;;4.90;79.28;96495.56;5051051;28;20420;-72
2023/12/22 00:46:46;;;;;;;13.43;3.42;;;;;;;4.82;80.50;96490.66;5017668;28;20042;-72
2023/12/22 00:49:11;;;;;;;11.98;3.90;;;;;;;4.78;79.46;96476.22;5015118;28;20028;-72
2023/12/22 00:51:36;;;;;;;11.73;3.58;;;;;;;4.72;79.78;96469.19;5042038;28;20029;-72
2023/12/22 00:54:02;;;;;;;15.40;4.03;;;;;;;4.76;80.13;96473.78;5048413;28;20507;-72
2023/12/22 00:56:27;;;;;;;10.45;3.38;;;;;;;4.78;79.85;96489.53;5043451;28;20036;-72
2023/12/22 00:58:53;;;;;;;13.00;3.42;;;;;;;4.81;79.95;96513.84;5016170;28;20099;-72
2023/12/22 01:01:18;;;;;;;11.75;3.88;;;;;;;4.75;80.92;96503.38;5045341;28;20115;-72
2023/12/22 01:03:44;;;;;;;15.13;3.90;;;;;;;4.76;80.57;96500.44;5020089;28;20029;-72
2023/12/22 01:06:09;;;;;;;11.52;3.72;;;;;;;4.71;80.72;96502.25;5049707;28;20091;-72
2023/12/22 01:08:37;;;;;;;10.70;3.40;;;;;;;4.66;80.56;96488.88;5027525;28;20025;-72
2023/12/22 01:11:02;;;;;;;12.57;4.22;;;;;;;4.62;80.97;96482.44;5010415;28;20045;-72
2023/12/22 01:13:28;;;;;;;11.73;3.50;;;;;;;4.68;80.74;96490.22;5040075;28;20025;-72
2023/12/22 01:15:53;;;;;;;16.60;4.03;;;;;;;4.70;80.56;96488.13;5041790;28;20041;-72
2023/12/22 01:18:18;;;;;;;11.40;3.53;;;;;;;4.80;80.52;96511.44;5028745;28;20054;-72
2023/12/22 01:20:44;;;;;;;12.60;3.33;;;;;;;4.82;81.25;96509.31;5035257;28;20056;-71
2023/12/22 01:23:09;;;;;;;11.07;3.75;;;;;;;4.89;81.31;96517.94;5033409;28;20024;-72
2023/12/22 01:25:34;;;;;;;12.57;3.67;;;;;;;4.83;81.60;96494.94;5042440;28;20486;-72
2023/12/22 01:28:00;;;;;;;13.75;3.85;;;;;;;4.94;81.66;96506.53;5023493;28;20035;-72
2023/12/22 01:30:25;;;;;;;11.18;3.40;;;;;;;5.01;81.40;96518.63;5041274;28;20052;-72
2023/12/22 01:32:50;;;;;;;11.00;3.67;;;;;;;4.92;82.06;96530.78;5039596;28;20049;-72
2023/12/22 01:35:16;;;;;;;8.18;2.58;;;;;;;4.83;82.15;96541.06;5013171;28;20056;-71
2023/12/22 01:37:41;;;;;;;8.80;3.40;;;;;;;4.85;82.31;96527.50;5043714;28;20028;-71
2023/12/22 01:40:07;;;;;;;8.18;2.97;;;;;;;4.85;82.03;96525.63;5043295;28;20485;-72
2023/12/22 01:42:33;;;;;;;8.90;2.80;;;;;;;4.90;82.63;96532.91;5020756;28;20040;-72
2023/12/22 01:44:58;;;;;;;8.20;2.92;;;;;;;4.78;83.19;96530.31;5010664;28;20029;-72
2023/12/22 01:47:24;;;;;;;9.43;3.35;;;;;;;4.84;83.62;96539.22;5040802;28;20473;-72
2023/12/22 01:49:50;;;;;;;11.35;3.67;;;;;;;4.76;84.07;96542.31;5016740;28;20489;-72
2023/12/22 01:52:16;;;;;;;7.50;2.78;;;;;;;4.83;83.79;96537.63;5042934;28;20028;-72
2023/12/22 01:54:42;;;;;;;9.85;2.90;;;;;;;4.76;84.21;96543.09;5036699;28;20068;-71
2023/12/22 01:57:07;;;;;;;9.45;3.00;;;;;;;4.72;84.76;96535.84;5045134;28;20075;-72
2023/12/22 01:59:34;;;;;;;8.93;3.13;;;;;;;4.77;84.21;96533.25;5015513;28;20060;-72
2023/12/22 02:02:03;;;;;;;8.35;2.85;;;;;;;4.92;83.62;96552.13;5027675;28;20103;-72
2023/12/22 02:04:30;;;;;;;7.57;2.45;;;;;;;4.86;83.46;96547.75;5014500;28;20076;-72
2023/12/22 02:06:57;;;;;;;8.25;2.40;;;;;;;4.90;83.87;96549.69;5006072;28;20025;-72
2023/12/22 02:09:23;;;;;;;6.10;2.50;;;;;;;4.86;83.89;96542.44;5014357;28;20069;-72
2023/12/22 02:11:48;;;;;;;5.38;2.67;;;;;;;4.81;84.29;96539.69;5032477;28;20056;-72
2023/12/22 02:14:14;;;;;;;7.82;2.90;;;;;;;4.79;84.31;96528.47;5011026;28;20509;-71
2023/12/22 02:16:45;;;;;;;6.82;2.40;;;;;;;4.79;84.54;96507.16;5040203;28;20551;-72
2023/12/22 02:19:39;;;;;;;6.55;2.47;;;;;;;4.83;83.92;96524.28;5024370;28;20181;-72
2023/12/22 02:22:09;;;;;;;7.53;2.75;;;;;;;4.95;83.94;96516.94;4995193;28;20044;-71
2023/12/22 02:24:35;;;;;;;7.35;2.50;;;;;;;4.94;84.20;96527.84;4973514;28;20087;-72
2023/12/22 02:27:13;;;;;;;8.70;2.38;;;;;;;4.83;84.57;96519.72;4998291;28;20065;-72
2023/12/22 02:29:43;;;;;;;6.47;2.13;;;;;;;4.91;83.67;96507.81;5042974;28;20055;-72
2023/12/22 02:32:13;;;;;;;3.78;2.22;;;;;;;4.79;83.43;96521.28;5013785;28;20040;-72
2023/12/22 02:34:42;;;;;;;5.38;2.25;;;;;;;4.93;83.71;96527.03;5026416;28;20037;-72
2023/12/22 02:37:08;;;;;;;7.03;2.33;;;;;;;5.01;82.96;96517.78;5029717;28;20031;-72
2023/12/22 02:39:35;;;;;;;5.40;2.20;;;;;;;5.07;83.12;96517.59;5031390;28;20033;-72
2023/12/22 02:42:01;;;;;;;8.85;2.45;;;;;;;4.95;82.55;96502.81;5024287;28;20048;-72
2023/12/22 02:44:27;;;;;;;5.10;1.85;;;;;;;4.90;82.58;96495.56;5027020;28;20044;-72
2023/12/22 02:46:52;;;;;;;4.43;2.30;;;;;;;5.02;82.55;96498.88;5018213;28;20033;-71
2023/12/22 02:49:18;;;;;;;5.00;1.90;;;;;;;4.92;83.28;96528.13;5017903;28;20044;-72
2023/12/22 02:51:44;;;;;;;5.75;2.17;;;;;;;5.01;82.82;96529.28;5048615;28;20027;-70
2023/12/22 02:54:09;;;;;;;7.68;2.40;;;;;;;4.91;82.67;96507.81;5019035;28;20132;-72
2023/12/22 02:56:35;;;;;;;6.10;2.08;;;;;;;4.90;83.29;96540.91;5040678;28;20212;-72
2023/12/22 02:59:00;;;;;;;5.75;1.60;;;;;;;4.82;82.90;96538.66;5043253;28;20052;-73
2023/12/22 03:01:25;;;;;;;5.28;2.15;;;;;;;4.90;82.65;96533.69;5029764;28;20028;-73
2023/12/22 03:03:51;;;;;;;3.25;1.55;;;;;;;4.89;83.33;96528.59;5023043;28;20413;-73
2023/12/22 03:06:16;;;;;;;5.20;1.58;;;;;;;4.65;82.85;96508.56;5041606;28;20025;-73
2023/12/22 03:08:42;;;;;;;7.07;1.92;;;;;;;4.88;82.39;96529.66;5015113;28;20038;-72
2023/12/22 03:11:07;;;;;;;3.60;1.77;;;;;;;4.77;82.95;96517.25;5021248;28;20021;-73
2023/12/22 03:13:32;;;;;;;3.35;1.63;;;;;;;4.73;82.59;96510.81;5023175;28;20041;-73
2023/12/22 03:15:58;;;;;;;3.60;1.52;;;;;;;4.74;82.15;96528.41;5045079;28;20029;-72
2023/12/22 03:18:23;;;;;;;3.10;1.45;;;;;;;4.80;81.94;96533.56;5043452;28;20113;-72
2023/12/22 03:20:48;;;;;;;6.50;1.90;;;;;;;4.73;82.39;96530.28;5015012;28;20030;-72
2023/12/22 03:23:14;;;;;;;3.85;1.75;;;;;;;4.77;82.17;96533.25;5029211;28;20045;-72
2023/12/22 03:25:39;;;;;;;5.03;2.03;;;;;;;4.65;82.30;96517.38;5030911;28;20076;-72
2023/12/22 03:28:04;;;;;;;5.78;1.60;;;;;;;4.80;81.34;96538.09;5046444;28;20043;-72
2023/12/22 03:30:30;;;;;;;4.50;1.60;;;;;;;4.67;81.41;96512.59;5010098;28;20033;-72
2023/12/22 03:32:55;;;;;;;3.35;1.80;;;;;;;4.76;81.30;96537.00;5027143;28;20386;-72
2023/12/22 03:35:20;;;;;;;4.72;1.65;;;;;;;4.60;81.33;96508.50;5009922;28;20030;-72
2023/12/22 03:37:46;;;;;;;3.33;1.70;;;;;;;4.68;81.01;96505.41;5013780;28;20045;-71
2023/12/22 03:40:12;;;;;;;5.40;1.60;;;;;;;4.84;80.72;96523.22;5041678;28;20079;-71
2023/12/22 03:42:37;;;;;;;2.25;1.30;;;;;;;4.84;80.89;96534.69;5043863;28;20029;-71
2023/12/22 03:45:03;;;;;;;3.83;1.60;;;;;;;4.58;80.14;96508.75;5047074;28;20025;-71
2023/12/22 03:47:28;;;;;;;5.50;1.48;;;;;;;4.69;80.77;96544.38;5042390;28;20116;-71
2023/12/22 03:49:54;;;;;;;4.18;1.70;;;;;;;4.67;80.77;96541.13;5044632;28;20103;-71
2023/12/22 03:52:19;;;;;;;3.78;1.52;;;;;;;4.66;80.43;96548.34;5048881;28;20041;-71
2023/12/22 03:54:45;;;;;;;3.28;1.85;;;;;;;4.70;80.40;96537.97;5020966;28;20025;-71
2023/12/22 03:57:10;;;;;;;3.58;1.30;;;;;;;4.53;81.33;96530.03;5043080;28;20112;-71
2023/12/22 03:59:36;;;;;;;2.80;1.40;;;;;;;4.56;81.31;96531.38;5040343;28;20048;-71
2023/12/22 04:02:02;;;;;;;4.55;1.67;;;;;;;4.54;80.53;96501.50;5047472;28;20041;-71
2023/12/22 04:04:28;;;;;;;6.13;1.42;;;;;;;4.55;80.96;96551.91;5036856;28;20032;-71
2023/12/22 04:06:53;;;;;;;6.85;2.00;;;;;;;4.55;80.34;96524.47;5012470;28;20129;-71
2023/12/22 04:09:19;;;;;;;3.53;1.60;;;;;;;4.51;80.75;96533.97;5016060;28;20092;-71
2023/12/22 04:11:44;;;;;;;4.03;1.55;;;;;;;4.59;81.00;96545.03;5029022;28;20405;-72
2023/12/22 04:14:10;;;;;;;5.07;1.98;;;;;;;4.60;80.81;96540.50;5045051;28;20049;-72
2023/12/22 04:16:38;;;;;;;4.10;2.13;;;;;;;4.22;80.20;96493.38;5029952;28;20036;-72
2023/12/22 04:19:04;;;;;;;7.20;2.00;;;;;;;4.39;81.15;96527.97;5042921;28;20096;-72
2023/12/22 04:21:29;;;;;;;5.55;1.95;;;;;;;4.49;80.42;96522.75;5019949;28;20029;-72
2023/12/22 04:23:55;;;;;;;4.25;1.90;;;;;;;4.42;80.30;96532.78;5039310;28;20028;-71
2023/12/22 04:26:20;;;;;;;4.78;1.80;;;;;;;4.63;80.09;96527.50;5027845;28;20044;-72
2023/12/22 04:28:45;;;;;;;6.65;2.17;;;;;;;4.50;79.89;96532.38;5036971;28;20560;-71
2023/12/22 04:31:11;;;;;;;5.20;1.75;;;;;;;4.58;80.48;96546.09;5034429;28;20048;-71
2023/12/22 04:33:36;;;;;;;7.30;2.13;;;;;;;4.60;80.30;96551.97;5034106;28;20025;-71
2023/12/22 04:36:02;;;;;;;5.28;1.77;;;;;;;4.52;79.72;96525.75;5030574;28;20029;-71
2023/12/22 04:38:27;;;;;;;6.53;1.90;;;;;;;4.59;79.57;96530.91;5042308;28;20018;-71
2023/12/22 04:40:52;;;;;;;7.57;2.00;;;;;;;4.68;79.49;96542.75;5040829;28;20041;-71
2023/12/22 04:43:18;;;;;;;3.70;1.73;;;;;;;4.48;80.02;96567.25;5038547;28;20391;-71
2023/12/22 04:45:44;;;;;;;4.47;2.08;;;;;;;4.54;79.65;96563.63;5010876;28;20447;-71
2023/12/22 04:48:09;;;;;;;3.30;1.48;;;;;;;4.48;79.85;96555.81;5039837;28;20021;-71
2023/12/22 04:50:34;;;;;;;7.15;2.35;;;;;;;4.39;80.46;96567.97;5041494;28;20040;-71
2023/12/22 04:53:00;;;;;;;5.15;1.67;;;;;;;4.38;80.51;96566.31;5049812;28;20025;-71
2023/12/22 04:55:25;;;;;;;7.95;1.90;;;;;;;4.41;79.71;96584.50;5046947;28;20037;-73
2023/12/22 04:57:50;;;;;;;5.10;1.52;;;;;;;4.57;79.89;96592.47;5020501;28;20037;-72
2023/12/22 05:00:17;;;;;;;3.78;1.60;;;;;;;4.59;79.22;96578.88;5011940;28;20505;-73
2023/12/22 05:02:42;;;;;;;5.22;1.55;;;;;;;4.70;78.75;96588.63;5027587;28;20088;-72
2023/12/22 05:05:08;;;;;;;4.35;1.75;;;;;;;4.56;78.95;96579.38;5052629;28;20037;-72
2023/12/22 05:07:34;;;;;;;4.90;1.58;;;;;;;4.58;79.14;96603.91;5025785;28;20017;-72
2023/12/22 05:09:59;;;;;;;3.88;1.50;;;;;;;4.49;79.99;96606.19;5012231;28;20041;-72
2023/12/22 05:12:24;;;;;;;3.72;1.70;;;;;;;4.49;80.17;96626.72;5033222;28;20505;-72
2023/12/22 05:14:50;;;;;;;3.35;1.25;;;;;;;4.49;79.62;96637.38;5049106;28;20087;-72
2023/12/22 05:17:15;;;;;;;3.03;1.70;;;;;;;4.54;79.90;96634.78;5028513;28;20504;-72
2023/12/22 05:19:40;;;;;;;4.10;1.90;;;;;;;4.43;80.63;96601.03;5048975;28;20041;-71
2023/12/22 05:22:06;;;;;;;4.47;1.58;;;;;;;4.39;80.50;96637.25;5038964;28;20021;-72
2023/12/22 05:24:31;;;;;;;6.57;3.78;;;;;;;4.47;80.98;96613.63;5044136;28;20049;-72
2023/12/22 05:26:56;;;;;;;3.58;1.83;;;;;;;4.42;81.51;96605.56;5043625;28;20117;-73
2023/12/22 05:29:22;;;;;;;4.57;1.80;;;;;;;4.30;81.68;96606.69;5018729;28;20048;-71
2023/12/22 05:31:47;;;;;;;5.90;3.67;;;;;;;4.19;82.09;96585.25;5037376;28;20544;-72
2023/12/22 05:34:13;;;;;;;2.60;1.35;;;;;;;4.08;82.54;96604.75;5027235;28;20469;-71
2023/12/22 05:36:38;;;;;;;2.63;1.42;;;;;;;4.18;82.56;96599.59;5041181;28;20053;-71
2023/12/22 05:39:03;;;;;;;3.55;1.55;;;;;;;3.96;83.07;96612.06;5035452;28;20087;-72
2023/12/22 05:41:29;;;;;;;1.33;1.20;;;;;;;4.13;82.64;96596.84;5042205;28;20021;-72
2023/12/22 05:43:54;;;;;;;2.28;1.30;;;;;;;3.97;83.09;96613.66;5015111;28;20071;-72
2023/12/22 05:46:19;;;;;;;2.50;1.20;;;;;;;3.95;82.85;96622.94;5020258;28;20058;-72
2023/12/22 05:48:45;;;;;;;2.70;1.58;;;;;;;3.96;83.39;96633.34;5030502;28;20405;-72
2023/12/22 05:51:13;;;;;;;2.97;2.70;;;;;;;4.03;82.84;96626.03;5022937;28;20079;-72
2023/12/22 05:53:41;;;;;;;4.10;1.48;;;;;;;3.92;83.19;96594.91;5045661;28;20037;-72
2023/12/22 05:56:19;;;;;;;1.88;1.77;;;;;;;3.97;82.73;96587.03;5026325;28;20091;-72
2023/12/22 05:58:45;;;;;;;3.47;2.67;;;;;;;4.06;82.42;96612.19;5020273;28;20604;-72
2023/12/22 06:01:18;;;;;;;3.08;1.75;;;;;;;3.97;82.71;96610.97;5014332;28;20029;-72
2023/12/22 06:03:44;;;;;;;2.05;1.27;;;;;;;3.85;82.36;96626.22;5015585;28;20034;-71
2023/12/22 06:06:09;;;;;;;4.35;1.73;;;;;;;3.93;82.42;96633.81;5041162;28;20028;-71
2023/12/22 06:08:35;;;;;;;3.45;1.90;;;;;;;3.88;82.33;96662.22;5042457;28;20065;-71
2023/12/22 06:11:00;;;;;;;2.22;1.50;;;;;;;3.90;82.04;96644.94;5035361;28;20045;-72
2023/12/22 06:13:26;;;;;;;3.10;2.20;;;;;;;4.05;81.61;96658.53;5013852;28;20049;-72
2023/12/22 06:15:51;;;;;;;4.53;1.85;;;;;;;3.99;81.47;96638.19;5047336;28;20025;-71
2023/12/22 06:18:16;;;;;;;4.97;1.63;;;;;;;4.00;81.31;96647.81;5025431;28;20040;-72
2023/12/22 06:20:42;;;;;;;3.65;1.88;;;;;;;3.89;80.61;96648.69;5044314;28;20037;-71
2023/12/22 06:23:07;;;;;;;4.32;1.85;;;;;;;3.90;80.79;96644.94;5021809;28;20060;-71
2023/12/22 06:25:32;;;;;;;3.70;1.60;;;;;;;3.99;80.32;96648.84;5040165;28;20021;-72
2023/12/22 06:27:58;;;;;;;2.53;1.60;;;;;;;3.96;80.14;96641.34;5016112;28;20446;-72
2023/12/22 06:30:23;;;;;;;1.77;1.40;;;;;;;4.02;80.03;96647.53;5025568;28;20021;-72
2023/12/22 06:32:49;;;;;;;4.43;2.10;;;;;;;4.09;80.17;96641.03;5040999;28;20037;-72
2023/12/22 06:35:14;;;;;;;2.45;1.60;;;;;;;3.85;80.45;96636.88;5030367;28;20021;-71
2023/12/22 06:37:40;;;;;;;4.65;1.50;;;;;;;3.86;80.62;96648.34;5034880;28;20041;-72
2023/12/22 06:40:05;;;;;;;4.53;1.95;;;;;;;4.03;80.26;96617.22;5010585;28;20022;-72
2023/12/22 06:42:31;;;;;;;5.15;2.35;;;;;;;4.04;80.79;96643.59;5036299;28;20409;-72
2023/12/22 06:44:56;;;;;;;3.60;1.38;;;;;;;3.90;80.85;96649.47;5016515;28;20029;-71
2023/12/22 06:47:21;;;;;;;4.38;1.50;;;;;;;4.07;81.43;96663.63;5027763;28;20407;-71
2023/12/22 06:49:47;;;;;;;2.95;1.20;;;;;;;3.84;81.55;96659.25;5015242;28;20084;-72
2023/12/22 06:52:12;;;;;;;4.75;1.73;;;;;;;3.98;81.18;96657.88;5050331;28;20040;-72
2023/12/22 06:54:37;;;;;;;2.70;1.08;;;;;;;3.98;81.00;96652.56;5041860;28;20451;-72
2023/12/22 06:57:03;;;;;;;1.63;1.20;;;;;;;4.15;81.11;96653.38;5044088;28;20048;-72
2023/12/22 06:59:28;;;;;;;6.88;1.45;;;;;;;4.22;80.95;96662.00;5010386;28;20024;-72
2023/12/22 07:01:55;;;;;;;3.83;1.88;;;;;;;4.28;81.04;96659.44;5046943;28;20037;-71
2023/12/22 07:04:20;;;;;;;2.63;1.20;;;;;;;4.22;81.28;96657.75;5019760;28;20028;-72
2023/12/22 07:06:47;;;;;;;3.97;1.50;;;;;;;4.29;80.96;96658.38;4992620;28;20412;-72
2023/12/22 07:09:19;;;;;;;3.80;1.67;;;;;;;4.19;81.28;96654.50;5019006;28;20036;-71
2023/12/22 07:11:47;;;;;;;3.20;1.50;;;;;;;4.13;81.26;96650.13;5044984;28;20049;-72
2023/12/22 07:14:13;;;;;;;4.45;1.60;;;;;;;4.14;81.69;96646.44;4995379;28;20104;-72
2023/12/22 07:16:39;;;;;;;2.45;1.38;;;;;;;4.10;81.80;96661.28;4998635;28;20060;-72
2023/12/22 07:19:05;;;;;;;3.30;1.58;;;;;;;4.13;81.55;96665.34;5012824;28;20092;-72
2023/12/22 07:21:30;;;;;;;2.95;1.50;;;;;;;4.19;81.75;96673.16;5018317;28;20045;-72
2023/12/22 07:23:56;;;;;;;2.00;1.50;;;;;;;3.90;83.50;96657.44;5039894;28;20477;-72
2023/12/22 07:26:21;;;;;;;3.35;1.60;;;;;;;3.89;85.35;96663.84;5031738;28;20037;-72
2023/12/22 07:28:47;;;;;;;6.20;1.98;;;;;;;3.94;85.46;96687.91;4998548;28;20026;-74
2023/12/22 07:31:13;;;;;;;5.70;2.17;;;;;;;3.95;85.56;96697.50;5042447;28;20116;-72
2023/12/22 07:33:40;;;;;;;3.25;1.92;;;;;;;3.91;85.30;96689.19;5014219;28;20165;-71
2023/12/22 07:36:06;;;;;;;3.65;2.10;;;;;;;4.17;84.72;96699.25;5028864;28;20040;-73
2023/12/22 07:38:31;;;;;;;4.38;2.10;;;;;;;4.20;85.11;96713.94;5046215;28;20021;-71
2023/12/22 07:40:57;;;;;;;6.72;2.88;;;;;;;4.22;84.77;96739.25;5025606;28;20493;-72
2023/12/22 07:43:22;;;;;;;4.72;1.70;;;;;;;4.27;84.07;96748.41;5031288;28;20028;-72
2023/12/22 07:45:50;;;;;;;5.53;1.95;;;;;;;4.29;83.79;96730.34;5043849;28;20029;-73
2023/12/22 07:48:15;;;;;;;4.88;1.95;;;;;;;4.46;82.85;96747.13;5022076;28;20068;-72
2023/12/22 07:50:42;;;;;;;4.18;2.13;;;;;;;4.45;83.54;96748.19;5015981;28;20492;-72
2023/12/22 07:53:08;;;;;;;5.82;2.67;;;;;;;4.53;83.44;96771.78;5041809;28;20012;-72
2023/12/22 07:55:34;;;;;;;6.75;2.60;;;;;;;4.50;83.66;96766.94;5029829;28;20070;-72
2023/12/22 07:57:59;;;;;;;5.90;2.20;;;;;;;4.40;83.69;96758.75;5018699;28;20482;-72
2023/12/22 08:00:24;;;;;;;6.88;3.10;;;;;;;4.65;83.25;96769.84;4999887;28;20475;-72
2023/12/22 08:02:50;;;;;;;6.03;2.65;;;;;;;4.64;83.09;96782.38;5037338;28;20037;-72
2023/12/22 08:05:15;;;;;;;4.47;2.70;;;;;;;4.65;83.14;96804.50;5050964;28;20447;-72
2023/12/22 08:07:41;;;;;;;5.20;2.47;;;;;;;4.59;83.30;96768.97;5033997;28;20028;-72
2023/12/22 08:10:06;;;;;;;7.32;2.95;;;;;;;4.78;82.85;96785.53;5049912;28;20040;-71
2023/12/22 08:12:32;;;;;;;8.77;3.00;;;;;;;4.84;82.38;96763.22;5012946;28;20041;-72
2023/12/22 08:14:58;;;;;;;2.63;2.00;;;;;;;4.64;82.97;96778.91;5030414;28;20198;-73
2023/12/22 08:17:23;;;;;;;5.15;2.47;;;;;;;4.81;82.09;96753.03;5049221;28;20032;-72
2023/12/22 08:19:49;;;;;;;6.10;2.88;;;;;;;4.92;81.95;96786.84;5020768;28;20056;-72
2023/12/22 08:22:14;;;;;;;5.90;2.55;;;;;;;4.94;81.91;96768.72;5045142;28;20095;-72
2023/12/22 08:24:41;;;;;;;4.78;2.20;;;;;;;4.73;82.38;96766.78;5019578;28;20464;-72
2023/12/22 08:27:07;;;;;;;8.45;3.05;;;;;;;5.05;82.28;96786.50;5008546;28;20021;-73
2023/12/22 08:29:32;;;;;;;4.90;2.47;;;;;;;4.95;82.31;96783.66;5013907;28;20109;-72
2023/12/22 08:31:58;;;;;;;7.53;2.88;;;;;;;4.91;81.68;96769.19;5015822;28;20041;-72
2023/12/22 08:34:23;;;;;;;7.32;2.80;;;;;;;5.05;82.03;96807.03;5022426;28;20032;-72
2023/12/22 08:36:49;;;;;;;9.32;2.88;;;;;;;5.10;82.14;96804.44;5034936;28;20032;-70
2023/12/22 08:39:14;;;;;;;6.70;2.67;;;;;;;4.83;81.81;96764.28;5028834;28;20033;-71
2023/12/22 08:41:40;;;;;;;8.88;2.60;;;;;;;5.19;81.20;96793.09;5034275;28;20025;-72
2023/12/22 08:44:06;;;;;;;5.22;2.60;;;;;;;5.14;81.70;96782.34;5043180;28;20382;-75
2023/12/22 08:46:32;;;;;;;7.47;2.60;;;;;;;5.22;81.38;96792.63;4999475;28;20185;-72
2023/12/22 08:48:59;;;;;;;3.28;2.20;;;;;;;5.14;81.60;96784.22;5017248;28;20072;-72
2023/12/22 08:51:24;;;;;;;3.95;2.15;;;;;;;5.12;81.70;96773.78;5033322;28;20049;-72
2023/12/22 08:53:50;;;;;;;6.55;2.70;;;;;;;5.16;81.51;96798.16;5041245;28;20151;-72
2023/12/22 08:56:16;;;;;;;5.72;3.08;;;;;;;5.37;80.52;96790.16;5042767;28;20025;-72
2023/12/22 08:58:42;;;;;;;6.30;2.42;;;;;;;5.36;80.69;96788.56;5045863;28;20052;-72
2023/12/22 09:01:07;;;;;;;5.22;2.15;;;;;;;5.50;80.59;96800.50;5038635;28;20474;-72
2023/12/22 09:03:33;;;;;;;4.55;2.22;;;;;;;5.42;80.16;96798.25;5032031;28;20160;-72
2023/12/22 09:05:59;;;;;;;3.78;2.10;;;;;;;5.50;80.13;96832.53;5006823;28;20035;-72
2023/12/22 09:08:24;;;;;;;4.60;2.00;;;;;;;5.43;79.79;96828.44;5027710;28;20028;-73
2023/12/22 09:10:49;;;;;;;5.05;2.70;;;;;;;5.65;79.35;96812.44;5046146;28;20448;-72
2023/12/22 09:13:15;;;;;;;6.53;2.80;;;;;;;5.58;79.42;96826.78;5052712;28;20044;-72
2023/12/22 09:15:41;;;;;;;4.32;2.00;;;;;;;5.39;80.48;96796.06;5023461;28;20045;-72
2023/12/22 09:18:07;;;;;;;4.70;2.05;;;;;;;5.46;79.64;96828.72;5043398;28;20441;-73
2023/12/22 09:20:33;;;;;;;5.38;2.10;;;;;;;5.57;79.29;96801.13;5015238;28;20116;-73
2023/12/22 09:22:58;;;;;;;3.95;2.10;;;;;;;5.78;78.83;96828.09;5031393;28;20037;-73
2023/12/22 09:25:24;;;;;;;5.55;2.40;;;;;;;5.76;79.24;96830.22;5023373;28;20037;-73
2023/12/22 09:27:49;;;;;;;5.85;2.40;;;;;;;5.68;79.70;96806.59;5043010;28;20040;-74
2023/12/22 09:30:15;;;;;;;3.40;2.40;;;;;;;5.84;79.60;96816.41;5011084;28;20028;-72
2023/12/22 09:32:40;;;;;;;4.15;2.88;;;;;;;5.73;79.07;96828.03;5022027;28;20063;-72
2023/12/22 09:35:06;;;;;;;5.45;2.33;;;;;;;5.71;79.37;96814.13;5025361;28;20031;-73
2023/12/22 09:37:31;;;;;;;3.92;2.03;;;;;;;5.67;79.00;96815.69;5021695;28;20474;-72
2023/12/22 09:39:56;;;;;;;5.32;2.10;;;;;;;5.88;78.72;96844.31;5048337;28;20021;-72
2023/12/22 09:42:24;;;;;;;2.47;1.60;;;;;;;5.72;78.76;96832.56;5009690;28;20041;-72
2023/12/22 09:44:52;;;;;;;3.97;1.67;;;;;;;5.58;79.47;96837.44;5021676;28;20033;-72
2023/12/22 09:47:19;;;;;;;4.93;2.00;;;;;;;5.84;79.32;96829.78;5012234;28;20041;-72
2023/12/22 09:49:45;;;;;;;3.08;1.70;;;;;;;5.67;79.34;96815.69;5015755;28;20032;-72
2023/12/22 09:52:11;;;;;;;4.45;1.70;;;;;;;5.79;79.37;96827.06;5033753;28;20037;-72
2023/12/22 09:54:37;;;;;;;3.88;2.13;;;;;;;5.70;79.67;96809.81;5008031;28;20032;-71
2023/12/22 09:57:03;;;;;;;5.10;2.08;;;;;;;5.89;79.46;96841.38;5032798;28;20120;-72
2023/12/22 09:59:28;;;;;;;4.28;1.77;;;;;;;5.84;79.01;96817.25;5002576;28;20060;-71
2023/12/22 10:01:54;;;;;;;6.20;2.15;;;;;;;5.76;79.14;96815.00;5021388;28;20066;-72
2023/12/22 10:04:20;;;;;;;6.47;2.28;;;;;;;5.79;79.26;96835.06;5028259;28;20024;-73
2023/12/22 10:06:47;;;;;;;5.93;2.63;;;;;;;5.77;79.86;96813.13;5028447;28;20037;-73
2023/12/22 10:09:14;;;;;;;5.30;2.40;;;;;;;5.81;78.98;96808.91;5017638;28;20034;-74
2023/12/22 10:11:40;;;;;;;5.80;2.20;;;;;;;5.81;78.84;96804.34;5023619;28;20036;-73
2023/12/22 10:14:06;;;;;;;9.02;3.20;;;;;;;5.84;77.86;96803.06;5034933;28;20464;-73
2023/12/22 10:16:31;;;;;;;5.53;2.35;;;;;;;5.64;78.14;96768.91;5018402;28;20052;-73
2023/12/22 10:18:59;;;;;;;6.60;2.80;;;;;;;5.95;77.80;96781.59;5017226;28;20025;-73
2023/12/22 10:21:24;;;;;;;6.68;2.75;;;;;;;5.89;78.13;96787.13;5010104;28;20033;-73
2023/12/22 10:23:49;;;;;;;11.05;4.82;;;;;;;5.92;77.54;96797.31;5017647;28;20025;-73
2023/12/22 10:26:16;;;;;;;7.57;2.78;;;;;;;5.89;77.65;96781.78;5025772;28;20033;-73
2023/12/22 10:28:42;;;;;;;6.32;2.30;;;;;;;6.06;77.24;96788.69;5016411;28;20504;-75
2023/12/22 10:31:07;;;;;;;8.20;3.00;;;;;;;6.02;76.83;96781.41;5018207;28;20033;-73
2023/12/22 10:33:33;;;;;;;6.45;2.60;;;;;;;6.11;76.86;96778.03;5015741;28;20025;-73
2023/12/22 10:35:59;;;;;;;8.23;2.78;;;;;;;6.17;77.39;96754.84;5045424;28;20506;-74
2023/12/22 10:38:25;;;;;;;8.05;3.30;;;;;;;6.19;76.96;96736.69;5011345;28;20736;-73
2023/12/22 10:40:51;;;;;;;10.55;4.00;;;;;;;6.21;77.09;96731.88;5042458;28;20033;-73
2023/12/22 10:43:17;;;;;;;9.20;2.97;;;;;;;6.05;77.34;96722.94;5031642;28;20393;-74
2023/12/22 10:45:42;;;;;;;10.48;2.97;;;;;;;6.02;79.03;96744.00;5039791;28;20044;-74
2023/12/22 10:48:08;;;;;;;7.18;2.85;;;;;;;6.00;79.04;96736.22;5030450;28;20489;-74
2023/12/22 10:50:33;;;;;;;8.35;3.03;;;;;;;6.19;79.36;96734.00;5019288;28;20052;-74
2023/12/22 10:52:59;;;;;;;8.27;3.03;;;;;;;6.18;79.79;96735.09;5016896;28;20052;-74
2023/12/22 10:55:24;;;;;;;10.18;3.33;;;;;;;6.04;79.68;96715.97;5031300;28;20038;-73
2023/12/22 10:57:50;;;;;;;9.38;2.95;;;;;;;6.01;80.15;96711.13;5039569;28;20034;-73
2023/12/22 11:00:16;;;;;;;8.90;2.78;;;;;;;5.91;80.76;96727.03;5008497;28;20040;-73
2023/12/22 11:02:42;;;;;;;8.13;3.17;;;;;;;5.87;81.04;96703.75;5030343;28;20462;-73
2023/12/22 11:05:10;;;;;;;7.88;3.00;;;;;;;5.76;83.32;96707.34;5042274;28;20533;-74
2023/12/22 11:07:37;;;;;;;7.75;3.15;;;;;;;5.84;84.33;96709.56;5015098;28;20385;-73
2023/12/22 11:10:06;;;;;;;5.07;2.90;;;;;;;5.88;84.11;96711.50;5015666;28;20069;-73
2023/12/22 11:12:36;;;;;;;6.18;2.83;;;;;;;5.79;84.70;96710.31;5013381;28;20030;-74
2023/12/22 11:15:03;;;;;;;5.50;2.92;;;;;;;5.80;85.76;96714.63;5021886;28;20033;-74
2023/12/22 11:17:29;;;;;;;7.45;2.70;;;;;;;5.74;86.15;96710.25;5015603;28;20025;-74
2023/12/22 11:19:55;;;;;;;6.30;2.90;;;;;;;5.71;86.16;96699.28;5022543;28;20033;-73
2023/12/22 11:22:21;;;;;;;5.18;2.35;;;;;;;5.85;86.09;96705.88;5017088;28;20533;-73
2023/12/22 11:24:48;;;;;;;5.93;2.38;;;;;;;5.91;86.05;96696.84;5033879;28;20037;-73
2023/12/22 11:27:17;;;;;;;4.75;2.55;;;;;;;6.02;87.01;96695.91;5001075;28;20036;-74
2023/12/22 11:29:49;;;;;;;5.30;2.92;;;;;;;5.95;86.18;96685.41;5001010;28;20033;-73
2023/12/22 11:32:15;;;;;;;9.02;5.10;;;;;;;5.94;86.23;96688.34;5033311;28;20040;-74
2023/12/22 11:34:42;;;;;;;17.73;11.35;;;;;;;5.97;87.03;96691.31;5033841;28;20076;-73